sensor_id;sensor_type;location;lat;lon;timestamp;temperature;humidity
18823;DHT22;9540;51.550;7.980;2023-05-07T00:01:47;12.50;99.90
18823;DHT22;9540;51.550;7.980;2023-05-07T00:04:14;12.40;99.90
18823;DHT22;9540;51.550;7.980;2023-05-07T00:06:43;12.50;99.90
18823;DHT22;9540;51.550;7.980;2023-05-07T00:09:10;12.50;99.90
18823;DHT22;9540;51.550;7.980;2023-05-07T00:11:37;12.50;99.90
18823;DHT22;9540;51.550;7.980;2023-05-07T00:14:04;12.50;99.90
18823;DHT22;9540;51.550;7.980;2023-05-07T00:16:31;12.50;99.90
18823;DHT22;9540;51.550;7.980;2023-05-07T00:18:58;12.50;99.90
18823;DHT22;9540;51.550;7.980;2023-05-07T00:21:25;12.60;99.90
18823;DHT22;9540;51.550;7.980;2023-05-07T00:23:54;12.50;99.90
18823;DHT22;9540;51.550;7.980;2023-05-07T00:26:21;12.60;99.90
18823;DHT22;9540;51.550;7.980;2023-05-07T00:28:49;12.50;99.90
18823;DHT22;9540;51.550;7.980;2023-05-07T00:31:16;12.50;99.90
18823;DHT22;9540;51.550;7.980;2023-05-07T00:33:43;12.50;99.90
18823;DHT22;9540;51.550;7.980;2023-05-07T00:36:10;12.60;99.90
18823;DHT22;9540;51.550;7.980;2023-05-07T00:38:37;12.60;99.90
18823;DHT22;9540;51.550;7.980;2023-05-07T00:41:06;12.60;99.90
18823;DHT22;9540;51.550;7.980;2023-05-07T00:43:33;12.60;99.90
18823;DHT22;9540;51.550;7.980;2023-05-07T00:46:00;12.60;99.90
18823;DHT22;9540;51.550;7.980;2023-05-07T00:48:28;12.60;99.90
18823;DHT22;9540;51.550;7.980;2023-05-07T00:50:55;12.60;99.90
18823;DHT22;9540;51.550;7.980;2023-05-07T00:53:23;12.60;99.90
18823;DHT22;9540;51.550;7.980;2023-05-07T00:55:50;12.60;99.90
18823;DHT22;9540;51.550;7.980;2023-05-07T00:58:19;12.60;99.90
18823;DHT22;9540;51.550;7.980;2023-05-07T01:00:48;12.60;99.90
18823;DHT22;9540;51.550;7.980;2023-05-07T01:03:15;12.60;99.90
18823;DHT22;9540;51.550;7.980;2023-05-07T01:05:43;12.50;99.90
18823;DHT22;9540;51.550;7.980;2023-05-07T01:08:11;12.50;99.90
18823;DHT22;9540;51.550;7.980;2023-05-07T01:10:39;12.50;99.90
18823;DHT22;9540;51.550;7.980;2023-05-07T01:13:09;12.50;99.90
18823;DHT22;9540;51.550;7.980;2023-05-07T01:15:37;12.50;99.90
18823;DHT22;9540;51.550;7.980;2023-05-07T01:18:06;12.50;99.90
18823;DHT22;9540;51.550;7.980;2023-05-07T01:20:33;12.50;99.90
18823;DHT22;9540;51.550;7.980;2023-05-07T01:23:03;12.50;99.90
18823;DHT22;9540;51.550;7.980;2023-05-07T01:25:31;12.40;99.90
18823;DHT22;9540;51.550;7.980;2023-05-07T01:27:58;12.40;99.90
18823;DHT22;9540;51.550;7.980;2023-05-07T01:30:27;12.50;99.90
18823;DHT22;9540;51.550;7.980;2023-05-07T01:32:58;12.40;99.90
18823;DHT22;9540;51.550;7.980;2023-05-07T01:35:30;12.40;99.90
18823;DHT22;9540;51.550;7.980;2023-05-07T01:37:59;12.40;99.90
18823;DHT22;9540;51.550;7.980;2023-05-07T01:40:28;12.40;99.90
18823;DHT22;9540;51.550;7.980;2023-05-07T01:42:56;12.30;99.90
18823;DHT22;9540;51.550;7.980;2023-05-07T01:45:23;12.30;99.90
18823;DHT22;9540;51.550;7.980;2023-05-07T01:47:50;12.30;99.90
18823;DHT22;9540;51.550;7.980;2023-05-07T01:50:19;12.30;99.90
18823;DHT22;9540;51.550;7.980;2023-05-07T01:52:49;12.20;99.90
18823;DHT22;9540;51.550;7.980;2023-05-07T01:55:17;12.20;99.90
18823;DHT22;9540;51.550;7.980;2023-05-07T01:57:46;12.20;99.90
18823;DHT22;9540;51.550;7.980;2023-05-07T02:00:13;12.20;99.90
18823;DHT22;9540;51.550;7.980;2023-05-07T02:02:40;12.20;99.90
18823;DHT22;9540;51.550;7.980;2023-05-07T02:05:08;12.20;99.90
18823;DHT22;9540;51.550;7.980;2023-05-07T02:07:35;12.20;99.90
18823;DHT22;9540;51.550;7.980;2023-05-07T02:10:03;12.20;99.90
18823;DHT22;9540;51.550;7.980;2023-05-07T02:12:30;12.20;99.90
18823;DHT22;9540;51.550;7.980;2023-05-07T02:14:59;12.20;99.90
18823;DHT22;9540;51.550;7.980;2023-05-07T02:17:26;12.20;99.90
18823;DHT22;9540;51.550;7.980;2023-05-07T02:19:53;12.20;99.90
18823;DHT22;9540;51.550;7.980;2023-05-07T02:22:20;12.20;99.90
18823;DHT22;9540;51.550;7.980;2023-05-07T02:24:47;12.20;99.90
18823;DHT22;9540;51.550;7.980;2023-05-07T02:27:14;12.20;99.90
18823;DHT22;9540;51.550;7.980;2023-05-07T02:29:41;12.20;99.90
18823;DHT22;9540;51.550;7.980;2023-05-07T02:32:10;12.10;99.90
18823;DHT22;9540;51.550;7.980;2023-05-07T02:34:37;12.10;99.90
18823;DHT22;9540;51.550;7.980;2023-05-07T02:37:04;12.20;99.90
18823;DHT22;9540;51.550;7.980;2023-05-07T02:39:31;12.20;99.90
18823;DHT22;9540;51.550;7.980;2023-05-07T02:41:58;12.20;99.90
18823;DHT22;9540;51.550;7.980;2023-05-07T02:44:25;12.10;99.90
18823;DHT22;9540;51.550;7.980;2023-05-07T02:46:52;12.10;99.90
18823;DHT22;9540;51.550;7.980;2023-05-07T02:49:21;12.00;99.90
18823;DHT22;9540;51.550;7.980;2023-05-07T02:51:48;11.90;99.90
18823;DHT22;9540;51.550;7.980;2023-05-07T02:54:15;11.80;99.90
18823;DHT22;9540;51.550;7.980;2023-05-07T02:56:43;11.70;99.90
18823;DHT22;9540;51.550;7.980;2023-05-07T02:59:10;11.60;99.90
18823;DHT22;9540;51.550;7.980;2023-05-07T03:01:37;11.60;99.90
18823;DHT22;9540;51.550;7.980;2023-05-07T03:04:04;11.60;99.90
18823;DHT22;9540;51.550;7.980;2023-05-07T03:06:33;11.60;99.90
18823;DHT22;9540;51.550;7.980;2023-05-07T03:09:00;11.70;99.90
18823;DHT22;9540;51.550;7.980;2023-05-07T03:11:27;11.70;99.90
18823;DHT22;9540;51.550;7.980;2023-05-07T03:13:54;11.70;99.90
18823;DHT22;9540;51.550;7.980;2023-05-07T03:16:21;11.80;99.90
18823;DHT22;9540;51.550;7.980;2023-05-07T03:18:48;11.80;99.90
18823;DHT22;9540;51.550;7.980;2023-05-07T03:21:16;11.80;99.90
18823;DHT22;9540;51.550;7.980;2023-05-07T03:23:44;11.80;99.90
18823;DHT22;9540;51.550;7.980;2023-05-07T03:26:11;11.80;99.90
18823;DHT22;9540;51.550;7.980;2023-05-07T03:28:38;11.90;99.90
18823;DHT22;9540;51.550;7.980;2023-05-07T03:31:05;11.90;99.90
18823;DHT22;9540;51.550;7.980;2023-05-07T03:33:33;11.90;99.90
18823;DHT22;9540;51.550;7.980;2023-05-07T03:36:00;12.00;99.90
18823;DHT22;9540;51.550;7.980;2023-05-07T03:38:27;11.90;99.90
18823;DHT22;9540;51.550;7.980;2023-05-07T03:40:57;11.90;99.90
18823;DHT22;9540;51.550;7.980;2023-05-07T03:43:24;11.90;99.90
18823;DHT22;9540;51.550;7.980;2023-05-07T03:45:51;11.90;99.90
18823;DHT22;9540;51.550;7.980;2023-05-07T03:48:19;11.90;99.90
18823;DHT22;9540;51.550;7.980;2023-05-07T03:50:46;11.70;99.90
18823;DHT22;9540;51.550;7.980;2023-05-07T03:53:13;11.60;99.90
18823;DHT22;9540;51.550;7.980;2023-05-07T03:55:40;11.60;99.90
18823;DHT22;9540;51.550;7.980;2023-05-07T03:58:09;11.50;99.90
18823;DHT22;9540;51.550;7.980;2023-05-07T04:00:36;11.50;99.90
18823;DHT22;9540;51.550;7.980;2023-05-07T04:03:04;11.60;99.90
18823;DHT22;9540;51.550;7.980;2023-05-07T04:05:31;11.60;99.90
18823;DHT22;9540;51.550;7.980;2023-05-07T04:07:59;11.60;99.90
18823;DHT22;9540;51.550;7.980;2023-05-07T04:10:26;11.60;99.90
18823;DHT22;9540;51.550;7.980;2023-05-07T04:12:54;11.70;99.90
18823;DHT22;9540;51.550;7.980;2023-05-07T04:15:24;11.70;99.90
18823;DHT22;9540;51.550;7.980;2023-05-07T04:17:51;11.80;99.90
18823;DHT22;9540;51.550;7.980;2023-05-07T04:20:18;11.80;99.90
18823;DHT22;9540;51.550;7.980;2023-05-07T04:22:45;11.80;99.90
18823;DHT22;9540;51.550;7.980;2023-05-07T04:25:12;11.80;99.90
18823;DHT22;9540;51.550;7.980;2023-05-07T04:27:39;11.80;99.90
18823;DHT22;9540;51.550;7.980;2023-05-07T04:30:07;11.80;99.90
18823;DHT22;9540;51.550;7.980;2023-05-07T04:32:36;11.80;99.90
18823;DHT22;9540;51.550;7.980;2023-05-07T04:35:03;11.80;99.90
18823;DHT22;9540;51.550;7.980;2023-05-07T04:37:32;11.90;99.90
18823;DHT22;9540;51.550;7.980;2023-05-07T04:39:59;12.00;99.90
18823;DHT22;9540;51.550;7.980;2023-05-07T04:42:27;12.00;99.90
18823;DHT22;9540;51.550;7.980;2023-05-07T04:44:54;12.00;99.90
18823;DHT22;9540;51.550;7.980;2023-05-07T04:47:21;12.10;99.90
18823;DHT22;9540;51.550;7.980;2023-05-07T04:49:50;12.10;99.90
18823;DHT22;9540;51.550;7.980;2023-05-07T04:52:17;12.10;99.90
18823;DHT22;9540;51.550;7.980;2023-05-07T04:54:44;12.20;99.90
18823;DHT22;9540;51.550;7.980;2023-05-07T04:57:11;12.30;99.90
18823;DHT22;9540;51.550;7.980;2023-05-07T04:59:38;12.30;99.90
18823;DHT22;9540;51.550;7.980;2023-05-07T05:02:05;12.30;99.90
18823;DHT22;9540;51.550;7.980;2023-05-07T05:04:32;12.40;99.90
18823;DHT22;9540;51.550;7.980;2023-05-07T05:07:00;12.50;99.90
18823;DHT22;9540;51.550;7.980;2023-05-07T05:09:29;12.50;99.90
18823;DHT22;9540;51.550;7.980;2023-05-07T05:11:56;12.60;99.90
18823;DHT22;9540;51.550;7.980;2023-05-07T05:14:23;12.60;99.90
18823;DHT22;9540;51.550;7.980;2023-05-07T05:16:50;12.60;99.90
18823;DHT22;9540;51.550;7.980;2023-05-07T05:19:17;12.60;99.90
18823;DHT22;9540;51.550;7.980;2023-05-07T05:21:44;12.70;99.90
18823;DHT22;9540;51.550;7.980;2023-05-07T05:24:13;12.80;99.90
18823;DHT22;9540;51.550;7.980;2023-05-07T05:26:40;12.80;99.90
18823;DHT22;9540;51.550;7.980;2023-05-07T05:29:07;12.80;99.90
18823;DHT22;9540;51.550;7.980;2023-05-07T05:31:34;12.80;99.90
18823;DHT22;9540;51.550;7.980;2023-05-07T05:34:02;12.90;99.90
18823;DHT22;9540;51.550;7.980;2023-05-07T05:36:29;12.90;99.90
18823;DHT22;9540;51.550;7.980;2023-05-07T05:38:57;12.90;99.90
18823;DHT22;9540;51.550;7.980;2023-05-07T05:41:26;13.00;99.90
18823;DHT22;9540;51.550;7.980;2023-05-07T05:43:53;13.00;99.90
18823;DHT22;9540;51.550;7.980;2023-05-07T05:46:20;13.00;99.90
18823;DHT22;9540;51.550;7.980;2023-05-07T05:48:47;13.10;99.90
18823;DHT22;9540;51.550;7.980;2023-05-07T05:51:15;13.10;99.90
18823;DHT22;9540;51.550;7.980;2023-05-07T05:53:42;13.20;99.90
18823;DHT22;9540;51.550;7.980;2023-05-07T05:56:09;13.20;99.90
18823;DHT22;9540;51.550;7.980;2023-05-07T05:58:37;13.30;99.90
18823;DHT22;9540;51.550;7.980;2023-05-07T06:01:05;13.40;99.90
18823;DHT22;9540;51.550;7.980;2023-05-07T06:03:32;13.60;99.90
18823;DHT22;9540;51.550;7.980;2023-05-07T06:05:59;13.80;99.90
18823;DHT22;9540;51.550;7.980;2023-05-07T06:08:29;13.90;99.90
18823;DHT22;9540;51.550;7.980;2023-05-07T06:10:56;14.00;99.90
18823;DHT22;9540;51.550;7.980;2023-05-07T06:13:23;14.10;99.90
18823;DHT22;9540;51.550;7.980;2023-05-07T06:15:52;14.20;99.90
18823;DHT22;9540;51.550;7.980;2023-05-07T06:18:19;14.30;99.90
18823;DHT22;9540;51.550;7.980;2023-05-07T06:20:46;14.40;99.90
18823;DHT22;9540;51.550;7.980;2023-05-07T06:23:14;14.30;99.90
18823;DHT22;9540;51.550;7.980;2023-05-07T06:25:41;14.20;99.90
18823;DHT22;9540;51.550;7.980;2023-05-07T06:28:08;14.20;99.90
18823;DHT22;9540;51.550;7.980;2023-05-07T06:30:37;14.20;99.90
18823;DHT22;9540;51.550;7.980;2023-05-07T06:33:05;14.20;99.90
18823;DHT22;9540;51.550;7.980;2023-05-07T06:35:32;14.20;99.90
18823;DHT22;9540;51.550;7.980;2023-05-07T06:38:00;14.20;99.90
18823;DHT22;9540;51.550;7.980;2023-05-07T06:40:27;14.30;99.90
18823;DHT22;9540;51.550;7.980;2023-05-07T06:42:54;14.30;99.90
18823;DHT22;9540;51.550;7.980;2023-05-07T06:45:21;14.30;99.90
18823;DHT22;9540;51.550;7.980;2023-05-07T06:47:49;14.30;99.90
18823;DHT22;9540;51.550;7.980;2023-05-07T06:50:18;14.40;99.90
18823;DHT22;9540;51.550;7.980;2023-05-07T06:52:45;14.30;99.90
18823;DHT22;9540;51.550;7.980;2023-05-07T06:55:12;14.40;99.90
18823;DHT22;9540;51.550;7.980;2023-05-07T06:57:39;14.40;99.90
18823;DHT22;9540;51.550;7.980;2023-05-07T07:00:07;14.50;99.90
18823;DHT22;9540;51.550;7.980;2023-05-07T07:02:36;14.60;99.90
18823;DHT22;9540;51.550;7.980;2023-05-07T07:05:03;14.70;99.90
18823;DHT22;9540;51.550;7.980;2023-05-07T07:07:32;14.80;99.90
18823;DHT22;9540;51.550;7.980;2023-05-07T07:09:59;14.90;99.90
18823;DHT22;9540;51.550;7.980;2023-05-07T07:12:26;14.90;99.90
18823;DHT22;9540;51.550;7.980;2023-05-07T07:14:54;15.00;99.90
18823;DHT22;9540;51.550;7.980;2023-05-07T07:17:21;15.00;99.90
18823;DHT22;9540;51.550;7.980;2023-05-07T07:19:48;15.00;99.90
18823;DHT22;9540;51.550;7.980;2023-05-07T07:22:16;15.10;99.90
18823;DHT22;9540;51.550;7.980;2023-05-07T07:24:44;15.20;99.90
18823;DHT22;9540;51.550;7.980;2023-05-07T07:27:11;15.40;99.90
18823;DHT22;9540;51.550;7.980;2023-05-07T07:29:38;15.40;99.90
18823;DHT22;9540;51.550;7.980;2023-05-07T07:32:05;15.40;99.90
18823;DHT22;9540;51.550;7.980;2023-05-07T07:34:32;15.40;99.90
18823;DHT22;9540;51.550;7.980;2023-05-07T07:36:59;15.40;99.90
18823;DHT22;9540;51.550;7.980;2023-05-07T07:39:30;15.50;99.90
18823;DHT22;9540;51.550;7.980;2023-05-07T07:41:59;15.60;99.90
18823;DHT22;9540;51.550;7.980;2023-05-07T07:44:30;15.70;99.90
18823;DHT22;9540;51.550;7.980;2023-05-07T07:46:57;15.70;99.90
18823;DHT22;9540;51.550;7.980;2023-05-07T07:49:24;15.80;99.90
18823;DHT22;9540;51.550;7.980;2023-05-07T07:51:51;15.80;99.90
18823;DHT22;9540;51.550;7.980;2023-05-07T07:54:18;15.80;99.90
18823;DHT22;9540;51.550;7.980;2023-05-07T07:56:45;15.90;99.90
18823;DHT22;9540;51.550;7.980;2023-05-07T07:59:14;15.80;99.90
18823;DHT22;9540;51.550;7.980;2023-05-07T08:01:44;15.80;99.90
18823;DHT22;9540;51.550;7.980;2023-05-07T08:04:11;15.80;99.90
18823;DHT22;9540;51.550;7.980;2023-05-07T08:06:38;15.70;99.90
18823;DHT22;9540;51.550;7.980;2023-05-07T08:09:05;15.70;99.90
18823;DHT22;9540;51.550;7.980;2023-05-07T08:11:32;15.80;99.90
18823;DHT22;9540;51.550;7.980;2023-05-07T08:14:00;15.70;99.90
18823;DHT22;9540;51.550;7.980;2023-05-07T08:16:29;15.80;99.90
18823;DHT22;9540;51.550;7.980;2023-05-07T08:18:56;15.80;99.90
18823;DHT22;9540;51.550;7.980;2023-05-07T08:21:23;15.90;99.90
18823;DHT22;9540;51.550;7.980;2023-05-07T08:23:51;16.10;99.90
18823;DHT22;9540;51.550;7.980;2023-05-07T08:26:18;16.20;99.90
18823;DHT22;9540;51.550;7.980;2023-05-07T08:28:46;16.30;99.90
18823;DHT22;9540;51.550;7.980;2023-05-07T08:31:13;16.30;99.90
18823;DHT22;9540;51.550;7.980;2023-05-07T08:33:42;16.30;99.90
18823;DHT22;9540;51.550;7.980;2023-05-07T08:36:09;16.30;99.90
18823;DHT22;9540;51.550;7.980;2023-05-07T08:38:36;16.40;99.90
18823;DHT22;9540;51.550;7.980;2023-05-07T08:41:03;16.50;99.90
18823;DHT22;9540;51.550;7.980;2023-05-07T08:43:33;16.60;99.90
18823;DHT22;9540;51.550;7.980;2023-05-07T08:46:04;16.70;99.90
18823;DHT22;9540;51.550;7.980;2023-05-07T08:48:32;16.90;99.90
18823;DHT22;9540;51.550;7.980;2023-05-07T08:51:01;17.00;99.90
18823;DHT22;9540;51.550;7.980;2023-05-07T08:53:28;17.20;99.90
18823;DHT22;9540;51.550;7.980;2023-05-07T08:55:55;17.30;99.90
18823;DHT22;9540;51.550;7.980;2023-05-07T08:58:23;17.40;99.90
18823;DHT22;9540;51.550;7.980;2023-05-07T09:00:51;17.40;99.90
18823;DHT22;9540;51.550;7.980;2023-05-07T09:03:19;17.50;99.90
18823;DHT22;9540;51.550;7.980;2023-05-07T09:05:46;17.50;99.90
18823;DHT22;9540;51.550;7.980;2023-05-07T09:08:16;17.40;99.90
18823;DHT22;9540;51.550;7.980;2023-05-07T09:10:44;17.50;99.90
18823;DHT22;9540;51.550;7.980;2023-05-07T09:13:12;17.40;99.90
18823;DHT22;9540;51.550;7.980;2023-05-07T09:15:40;17.40;99.90
18823;DHT22;9540;51.550;7.980;2023-05-07T09:18:07;17.40;99.90
18823;DHT22;9540;51.550;7.980;2023-05-07T09:20:34;17.50;99.90
18823;DHT22;9540;51.550;7.980;2023-05-07T09:23:02;17.50;99.90
18823;DHT22;9540;51.550;7.980;2023-05-07T09:25:32;17.50;99.90
18823;DHT22;9540;51.550;7.980;2023-05-07T09:28:00;17.50;99.90
18823;DHT22;9540;51.550;7.980;2023-05-07T09:30:28;17.60;99.90
18823;DHT22;9540;51.550;7.980;2023-05-07T09:32:56;17.60;99.90
18823;DHT22;9540;51.550;7.980;2023-05-07T09:35:25;17.60;99.90
18823;DHT22;9540;51.550;7.980;2023-05-07T09:37:53;17.70;99.90
18823;DHT22;9540;51.550;7.980;2023-05-07T09:40:21;17.80;99.90
18823;DHT22;9540;51.550;7.980;2023-05-07T09:42:50;18.00;99.90
18823;DHT22;9540;51.550;7.980;2023-05-07T09:45:22;18.20;99.90
18823;DHT22;9540;51.550;7.980;2023-05-07T09:47:50;18.40;99.90
18823;DHT22;9540;51.550;7.980;2023-05-07T09:50:23;18.60;99.90
18823;DHT22;9540;51.550;7.980;2023-05-07T09:52:52;18.70;99.90
18823;DHT22;9540;51.550;7.980;2023-05-07T09:55:21;18.80;99.90
18823;DHT22;9540;51.550;7.980;2023-05-07T09:57:50;19.00;99.90
18823;DHT22;9540;51.550;7.980;2023-05-07T10:00:19;19.10;99.90
18823;DHT22;9540;51.550;7.980;2023-05-07T10:02:47;19.20;99.90
18823;DHT22;9540;51.550;7.980;2023-05-07T10:05:15;19.30;99.90
18823;DHT22;9540;51.550;7.980;2023-05-07T10:07:43;19.40;99.90
18823;DHT22;9540;51.550;7.980;2023-05-07T10:10:11;19.40;99.90
18823;DHT22;9540;51.550;7.980;2023-05-07T10:12:39;19.40;99.90
18823;DHT22;9540;51.550;7.980;2023-05-07T10:15:09;19.40;99.90
18823;DHT22;9540;51.550;7.980;2023-05-07T10:17:37;19.30;99.90
18823;DHT22;9540;51.550;7.980;2023-05-07T10:20:06;19.20;99.90
18823;DHT22;9540;51.550;7.980;2023-05-07T10:22:41;19.20;99.90
18823;DHT22;9540;51.550;7.980;2023-05-07T10:25:14;19.30;99.90
18823;DHT22;9540;51.550;7.980;2023-05-07T10:27:43;19.50;99.90
18823;DHT22;9540;51.550;7.980;2023-05-07T10:30:22;19.60;99.90
18823;DHT22;9540;51.550;7.980;2023-05-07T10:32:55;19.90;99.90
18823;DHT22;9540;51.550;7.980;2023-05-07T10:35:26;20.10;99.90
18823;DHT22;9540;51.550;7.980;2023-05-07T10:37:54;20.30;99.90
18823;DHT22;9540;51.550;7.980;2023-05-07T10:40:21;20.50;99.90
18823;DHT22;9540;51.550;7.980;2023-05-07T10:42:56;20.60;99.90
18823;DHT22;9540;51.550;7.980;2023-05-07T10:45:27;20.90;99.90
18823;DHT22;9540;51.550;7.980;2023-05-07T10:48:10;21.00;99.90
18823;DHT22;9540;51.550;7.980;2023-05-07T10:50:37;21.00;99.90
18823;DHT22;9540;51.550;7.980;2023-05-07T10:53:24;21.00;99.90
18823;DHT22;9540;51.550;7.980;2023-05-07T10:58:56;21.40;99.90
18823;DHT22;9540;51.550;7.980;2023-05-07T11:01:55;21.70;99.90
18823;DHT22;9540;51.550;7.980;2023-05-07T11:04:23;21.80;99.90
18823;DHT22;9540;51.550;7.980;2023-05-07T11:07:21;21.70;99.90
18823;DHT22;9540;51.550;7.980;2023-05-07T11:10:03;21.40;99.90
18823;DHT22;9540;51.550;7.980;2023-05-07T11:12:53;21.20;99.90
18823;DHT22;9540;51.550;7.980;2023-05-07T11:15:41;21.00;99.90
18823;DHT22;9540;51.550;7.980;2023-05-07T11:18:11;21.00;99.90
18823;DHT22;9540;51.550;7.980;2023-05-07T11:20:49;20.90;99.90
18823;DHT22;9540;51.550;7.980;2023-05-07T11:26:17;21.00;99.90
18823;DHT22;9540;51.550;7.980;2023-05-07T11:28:44;21.10;99.90
18823;DHT22;9540;51.550;7.980;2023-05-07T11:31:11;21.20;99.90
18823;DHT22;9540;51.550;7.980;2023-05-07T11:33:40;21.30;99.90
18823;DHT22;9540;51.550;7.980;2023-05-07T11:36:08;21.50;99.90
18823;DHT22;9540;51.550;7.980;2023-05-07T11:38:36;21.60;99.90
18823;DHT22;9540;51.550;7.980;2023-05-07T11:41:04;21.70;99.90
18823;DHT22;9540;51.550;7.980;2023-05-07T11:43:35;21.70;99.90
18823;DHT22;9540;51.550;7.980;2023-05-07T11:46:07;21.60;99.90
18823;DHT22;9540;51.550;7.980;2023-05-07T11:48:34;21.50;99.90
18823;DHT22;9540;51.550;7.980;2023-05-07T11:51:04;21.40;99.90
18823;DHT22;9540;51.550;7.980;2023-05-07T11:53:39;21.70;99.90
18823;DHT22;9540;51.550;7.980;2023-05-07T11:56:08;22.10;99.90
18823;DHT22;9540;51.550;7.980;2023-05-07T11:58:35;22.00;99.90
18823;DHT22;9540;51.550;7.980;2023-05-07T12:01:03;22.00;99.90
18823;DHT22;9540;51.550;7.980;2023-05-07T12:03:31;21.90;99.90
18823;DHT22;9540;51.550;7.980;2023-05-07T12:05:59;21.80;99.90
18823;DHT22;9540;51.550;7.980;2023-05-07T12:08:28;21.60;99.90
18823;DHT22;9540;51.550;7.980;2023-05-07T12:10:55;21.50;99.90
18823;DHT22;9540;51.550;7.980;2023-05-07T12:13:24;21.40;99.90
18823;DHT22;9540;51.550;7.980;2023-05-07T12:15:51;21.30;99.90
18823;DHT22;9540;51.550;7.980;2023-05-07T12:18:19;21.10;99.90
18823;DHT22;9540;51.550;7.980;2023-05-07T12:20:46;20.80;99.90
18823;DHT22;9540;51.550;7.980;2023-05-07T12:23:14;20.70;99.90
18823;DHT22;9540;51.550;7.980;2023-05-07T12:25:43;20.60;99.90
18823;DHT22;9540;51.550;7.980;2023-05-07T12:28:13;20.50;99.90
18823;DHT22;9540;51.550;7.980;2023-05-07T12:30:42;20.40;99.90
18823;DHT22;9540;51.550;7.980;2023-05-07T12:33:09;20.40;99.90
18823;DHT22;9540;51.550;7.980;2023-05-07T12:35:39;20.40;99.90
18823;DHT22;9540;51.550;7.980;2023-05-07T12:38:08;20.30;99.90
18823;DHT22;9540;51.550;7.980;2023-05-07T12:40:37;20.40;99.90
18823;DHT22;9540;51.550;7.980;2023-05-07T12:43:07;20.50;99.90
18823;DHT22;9540;51.550;7.980;2023-05-07T12:45:37;20.60;99.90
18823;DHT22;9540;51.550;7.980;2023-05-07T12:48:05;20.70;99.90
18823;DHT22;9540;51.550;7.980;2023-05-07T12:50:32;20.70;99.90
18823;DHT22;9540;51.550;7.980;2023-05-07T12:53:00;20.80;99.90
18823;DHT22;9540;51.550;7.980;2023-05-07T12:55:31;20.90;99.90
18823;DHT22;9540;51.550;7.980;2023-05-07T12:58:01;21.10;99.90
18823;DHT22;9540;51.550;7.980;2023-05-07T13:00:39;21.30;99.90
18823;DHT22;9540;51.550;7.980;2023-05-07T13:03:06;21.50;99.90
18823;DHT22;9540;51.550;7.980;2023-05-07T13:05:33;21.60;99.90
18823;DHT22;9540;51.550;7.980;2023-05-07T13:08:00;21.50;99.90
18823;DHT22;9540;51.550;7.980;2023-05-07T13:10:28;21.50;99.90
18823;DHT22;9540;51.550;7.980;2023-05-07T13:12:55;21.40;99.90
18823;DHT22;9540;51.550;7.980;2023-05-07T13:15:22;21.30;99.90
18823;DHT22;9540;51.550;7.980;2023-05-07T13:17:51;21.10;99.90
18823;DHT22;9540;51.550;7.980;2023-05-07T13:20:18;20.90;99.90
18823;DHT22;9540;51.550;7.980;2023-05-07T13:22:45;20.70;99.90
18823;DHT22;9540;51.550;7.980;2023-05-07T13:25:12;20.60;99.90
18823;DHT22;9540;51.550;7.980;2023-05-07T13:27:39;20.40;99.90
18823;DHT22;9540;51.550;7.980;2023-05-07T13:30:07;20.30;99.90
18823;DHT22;9540;51.550;7.980;2023-05-07T13:32:34;20.10;99.90
18823;DHT22;9540;51.550;7.980;2023-05-07T13:35:03;20.00;99.90
18823;DHT22;9540;51.550;7.980;2023-05-07T13:37:30;19.70;99.90
18823;DHT22;9540;51.550;7.980;2023-05-07T13:39:58;19.60;99.90
18823;DHT22;9540;51.550;7.980;2023-05-07T13:42:25;19.50;99.90
18823;DHT22;9540;51.550;7.980;2023-05-07T13:44:52;19.40;99.90
18823;DHT22;9540;51.550;7.980;2023-05-07T13:47:19;19.30;99.90
18823;DHT22;9540;51.550;7.980;2023-05-07T13:49:46;19.30;99.90
18823;DHT22;9540;51.550;7.980;2023-05-07T13:52:16;19.20;99.90
18823;DHT22;9540;51.550;7.980;2023-05-07T13:54:43;19.20;99.90
18823;DHT22;9540;51.550;7.980;2023-05-07T13:57:10;19.20;99.90
18823;DHT22;9540;51.550;7.980;2023-05-07T13:59:37;19.20;99.90
18823;DHT22;9540;51.550;7.980;2023-05-07T14:02:05;19.20;99.90
18823;DHT22;9540;51.550;7.980;2023-05-07T14:04:32;19.20;99.90
18823;DHT22;9540;51.550;7.980;2023-05-07T14:06:59;19.20;99.90
18823;DHT22;9540;51.550;7.980;2023-05-07T14:09:28;19.20;99.90
18823;DHT22;9540;51.550;7.980;2023-05-07T14:11:56;19.10;99.90
18823;DHT22;9540;51.550;7.980;2023-05-07T14:14:23;19.00;99.90
18823;DHT22;9540;51.550;7.980;2023-05-07T14:16:50;18.90;99.90
18823;DHT22;9540;51.550;7.980;2023-05-07T14:19:17;18.70;99.90
18823;DHT22;9540;51.550;7.980;2023-05-07T14:21:44;18.60;99.90
18823;DHT22;9540;51.550;7.980;2023-05-07T14:24:11;18.50;99.90
18823;DHT22;9540;51.550;7.980;2023-05-07T14:26:39;18.30;99.90
18823;DHT22;9540;51.550;7.980;2023-05-07T14:29:06;18.30;99.90
18823;DHT22;9540;51.550;7.980;2023-05-07T14:31:33;18.20;99.90
18823;DHT22;9540;51.550;7.980;2023-05-07T14:34:01;18.10;99.90
18823;DHT22;9540;51.550;7.980;2023-05-07T14:36:28;18.10;99.90
18823;DHT22;9540;51.550;7.980;2023-05-07T14:38:57;18.10;99.90
18823;DHT22;9540;51.550;7.980;2023-05-07T14:41:25;18.10;99.90
18823;DHT22;9540;51.550;7.980;2023-05-07T14:43:53;18.00;99.90
18823;DHT22;9540;51.550;7.980;2023-05-07T14:46:21;18.00;99.90
18823;DHT22;9540;51.550;7.980;2023-05-07T14:48:49;18.10;99.90
18823;DHT22;9540;51.550;7.980;2023-05-07T14:51:16;18.00;99.90
18823;DHT22;9540;51.550;7.980;2023-05-07T14:53:43;18.00;99.90
18823;DHT22;9540;51.550;7.980;2023-05-07T14:56:11;18.10;99.90
18823;DHT22;9540;51.550;7.980;2023-05-07T14:58:38;18.20;99.90
18823;DHT22;9540;51.550;7.980;2023-05-07T15:01:06;18.20;99.90
18823;DHT22;9540;51.550;7.980;2023-05-07T15:03:34;18.20;99.90
18823;DHT22;9540;51.550;7.980;2023-05-07T15:06:01;18.10;99.90
18823;DHT22;9540;51.550;7.980;2023-05-07T15:08:29;18.10;99.90
18823;DHT22;9540;51.550;7.980;2023-05-07T15:10:56;18.00;99.90
18823;DHT22;9540;51.550;7.980;2023-05-07T15:13:23;17.90;99.90
18823;DHT22;9540;51.550;7.980;2023-05-07T15:15:50;17.90;99.90
18823;DHT22;9540;51.550;7.980;2023-05-07T15:18:19;17.80;99.90
18823;DHT22;9540;51.550;7.980;2023-05-07T15:20:46;17.70;99.90
18823;DHT22;9540;51.550;7.980;2023-05-07T15:23:13;17.70;99.90
18823;DHT22;9540;51.550;7.980;2023-05-07T15:25:41;17.70;99.90
18823;DHT22;9540;51.550;7.980;2023-05-07T15:28:08;17.80;99.90
18823;DHT22;9540;51.550;7.980;2023-05-07T15:30:35;17.80;99.90
18823;DHT22;9540;51.550;7.980;2023-05-07T15:33:02;17.70;99.90
18823;DHT22;9540;51.550;7.980;2023-05-07T15:35:31;17.80;99.90
18823;DHT22;9540;51.550;7.980;2023-05-07T15:37:58;17.70;99.90
18823;DHT22;9540;51.550;7.980;2023-05-07T15:40:25;17.70;99.90
18823;DHT22;9540;51.550;7.980;2023-05-07T15:42:54;17.70;99.90
18823;DHT22;9540;51.550;7.980;2023-05-07T15:45:22;17.70;99.90
18823;DHT22;9540;51.550;7.980;2023-05-07T15:47:49;17.70;99.90
18823;DHT22;9540;51.550;7.980;2023-05-07T15:50:16;17.60;99.90
18823;DHT22;9540;51.550;7.980;2023-05-07T15:52:45;17.60;99.90
18823;DHT22;9540;51.550;7.980;2023-05-07T15:55:12;17.60;99.90
18823;DHT22;9540;51.550;7.980;2023-05-07T15:57:40;17.60;99.90